Time;durP1;ratioP1;P1;durP2;ratioP2;P2;SDS_P1;SDS_P2;PMS_P1;PMS_P2;Temp;Humidity;BMP_temperature;BMP_pressure;BME280_temperature;BME280_humidity;BME280_pressure;Samples;Min_cycle;Max_cycle;Signal;HPM_P1;HPM_P2
2021/07/16 00:00:01;;;;;;;5.03;3.23;;;21.70;94.90;;;;;;6324068;28;20244;-60
2021/07/16 00:03:05;;;;;;;3.10;2.80;;;21.60;94.90;;;;;;6323544;28;20226;-60
2021/07/16 00:06:08;;;;;;;3.60;2.60;;;21.60;95.10;;;;;;6323457;28;20241;-60
2021/07/16 00:09:12;;;;;;;4.23;2.90;;;21.60;95.20;;;;;;6323702;28;20226;-60
2021/07/16 00:12:16;;;;;;;5.30;3.40;;;21.60;95.40;;;;;;6323008;28;20226;-60
2021/07/16 00:15:21;;;;;;;3.90;3.37;;;21.60;95.30;;;;;;6314438;28;20230;-59
2021/07/16 00:18:24;;;;;;;3.53;3.23;;;21.50;95.30;;;;;;6341085;27;20233;-61
2021/07/16 00:21:28;;;;;;;3.03;2.83;;;21.50;95.30;;;;;;6348724;27;20680;-59
2021/07/16 00:24:31;;;;;;;3.80;3.37;;;21.50;95.50;;;;;;6348377;27;20221;-60
2021/07/16 00:27:36;;;;;;;3.90;3.10;;;21.40;95.50;;;;;;6348562;27;20225;-60
2021/07/16 00:30:39;;;;;;;3.63;3.27;;;21.40;95.70;;;;;;6348165;27;20407;-60
2021/07/16 00:33:43;;;;;;;4.10;3.53;;;21.40;95.90;;;;;;6348520;27;20279;-60
2021/07/16 00:36:46;;;;;;;3.10;2.90;;;21.40;95.90;;;;;;6348500;27;20229;-60
2021/07/16 00:39:49;;;;;;;2.97;2.77;;;21.30;95.90;;;;;;6347772;27;20233;-60
2021/07/16 00:42:54;;;;;;;4.87;2.80;;;21.30;96.00;;;;;;6347798;27;20612;-60
2021/07/16 00:45:57;;;;;;;4.17;2.70;;;21.30;96.50;;;;;;6346428;27;20221;-61
2021/07/16 00:49:01;;;;;;;3.00;2.80;;;21.20;96.20;;;;;;6347197;27;20233;-61
2021/07/16 00:52:05;;;;;;;3.40;3.10;;;21.20;96.20;;;;;;6322519;28;20238;-60
2021/07/16 00:55:09;;;;;;;3.43;3.13;;;21.20;96.20;;;;;;6321990;28;20891;-60
2021/07/16 00:58:15;;;;;;;2.97;2.77;;;21.20;96.30;;;;;;6322073;28;20709;-61
2021/07/16 01:01:19;;;;;;;3.33;3.03;;;21.20;96.30;;;;;;6321741;28;20207;-62
2021/07/16 01:04:23;;;;;;;3.40;3.20;;;21.20;96.40;;;;;;6322453;28;20230;-60
2021/07/16 01:07:27;;;;;;;3.50;3.30;;;21.10;96.80;;;;;;6333156;27;20209;-60
2021/07/16 01:10:31;;;;;;;6.70;3.90;;;21.10;96.50;;;;;;6347036;27;20208;-61
2021/07/16 01:13:37;;;;;;;6.67;3.33;;;21.10;96.60;;;;;;6329797;28;20218;-63
2021/07/16 01:16:41;;;;;;;3.17;2.97;;;21.00;96.70;;;;;;6320615;27;20244;-66
2021/07/16 01:19:51;;;;;;;6.00;3.40;;;21.00;96.80;;;;;;6348034;27;20229;-62
2021/07/16 01:22:56;;;;;;;5.30;3.30;;;21.10;96.80;;;;;;6349178;28;20686;-64
2021/07/16 01:26:01;;;;;;;3.50;3.20;;;21.10;96.70;;;;;;6349057;28;20229;-65
2021/07/16 01:29:04;;;;;;;3.20;2.90;;;21.10;97.00;;;;;;6349001;28;20298;-63
2021/07/16 01:32:08;;;;;;;5.20;2.93;;;21.00;96.90;;;;;;6349414;27;20218;-63
2021/07/16 01:35:13;;;;;;;3.83;3.50;;;21.10;97.10;;;;;;6349334;28;20221;-64
2021/07/16 01:38:16;;;;;;;4.13;3.50;;;21.00;97.40;;;;;;6349405;28;20228;-65
2021/07/16 01:41:21;;;;;;;2.80;2.53;;;21.10;97.10;;;;;;6349178;28;20679;-65
2021/07/16 01:44:24;;;;;;;3.43;3.07;;;21.00;97.20;;;;;;6347720;27;20570;-63
2021/07/16 01:47:27;;;;;;;3.30;3.00;;;21.00;97.30;;;;;;6346860;27;20225;-64
2021/07/16 01:50:33;;;;;;;5.90;3.53;;;21.00;97.20;;;;;;6347675;27;20229;-63
2021/07/16 01:53:36;;;;;;;5.00;2.70;;;20.90;97.50;;;;;;6347929;27;20226;-63
2021/07/16 01:56:41;;;;;;;3.17;2.87;;;20.90;97.50;;;;;;6347031;27;20233;-63
2021/07/16 01:59:44;;;;;;;3.87;2.70;;;21.00;97.60;;;;;;6346241;27;20229;-63
2021/07/16 02:02:49;;;;;;;5.30;3.40;;;20.90;97.50;;;;;;6345882;27;20282;-63
2021/07/16 02:05:53;;;;;;;5.30;2.93;;;21.00;97.60;;;;;;6348332;27;20222;-63
2021/07/16 02:08:56;;;;;;;3.50;3.20;;;21.00;97.60;;;;;;6347747;27;20236;-63
2021/07/16 02:12:01;;;;;;;3.77;3.47;;;20.90;97.80;;;;;;6348751;27;20229;-63
2021/07/16 02:15:09;;;;;;;3.20;2.90;;;20.90;97.70;;;;;;6348660;27;20252;-63
2021/07/16 02:18:14;;;;;;;4.63;3.00;;;21.00;97.90;;;;;;6348294;27;20235;-63
2021/07/16 02:21:17;;;;;;;2.50;2.30;;;20.90;97.90;;;;;;6339850;27;20229;-63
2021/07/16 02:24:20;;;;;;;3.10;2.90;;;20.80;98.00;;;;;;6348214;27;20237;-62
2021/07/16 02:27:25;;;;;;;3.73;3.20;;;20.80;98.10;;;;;;6348622;27;20244;-63
2021/07/16 02:30:29;;;;;;;3.77;3.47;;;20.80;98.20;;;;;;6348447;27;20233;-63
2021/07/16 02:33:32;;;;;;;4.10;3.53;;;20.80;98.20;;;;;;6348308;27;20581;-63
2021/07/16 02:36:35;;;;;;;3.20;2.90;;;20.70;98.30;;;;;;6350979;27;20229;-63
2021/07/16 02:39:39;;;;;;;2.97;2.77;;;20.80;98.40;;;;;;6352652;27;20225;-63
2021/07/16 02:42:44;;;;;;;4.13;3.60;;;20.70;98.40;;;;;;6353301;27;20229;-63
2021/07/16 02:45:47;;;;;;;3.20;2.90;;;20.70;98.50;;;;;;6352783;27;20587;-63
2021/07/16 02:48:50;;;;;;;3.27;2.97;;;20.60;98.60;;;;;;6352923;27;20687;-63
2021/07/16 02:51:54;;;;;;;2.93;2.63;;;20.60;98.70;;;;;;6353182;27;20575;-63
2021/07/16 02:54:57;;;;;;;4.13;3.80;;;20.70;98.80;;;;;;6352831;27;20229;-62
2021/07/16 02:58:02;;;;;;;3.57;3.27;;;20.60;98.70;;;;;;6353194;27;20229;-62
2021/07/16 03:01:05;;;;;;;3.80;3.30;;;20.60;98.80;;;;;;6352575;27;20686;-63
2021/07/16 03:04:10;;;;;;;3.60;3.23;;;20.60;98.80;;;;;;6352743;27;20338;-63
2021/07/16 03:07:13;;;;;;;4.00;3.50;;;20.60;98.70;;;;;;6352566;27;20229;-63
2021/07/16 03:10:19;;;;;;;4.23;3.83;;;20.60;98.90;;;;;;6352483;27;20232;-63
2021/07/16 03:13:24;;;;;;;3.00;2.80;;;20.60;98.90;;;;;;6352385;27;20307;-63
2021/07/16 03:16:27;;;;;;;3.60;3.30;;;20.60;98.90;;;;;;6352480;27;20233;-63
2021/07/16 03:19:31;;;;;;;3.73;3.40;;;20.60;98.80;;;;;;6352670;27;20300;-63
2021/07/16 03:22:34;;;;;;;5.53;3.03;;;20.60;99.00;;;;;;6348220;27;20220;-63
2021/07/16 03:25:38;;;;;;;3.10;2.90;;;20.60;98.90;;;;;;6351953;27;20655;-63
2021/07/16 03:28:43;;;;;;;3.50;3.20;;;20.60;99.00;;;;;;6352027;27;20571;-63
2021/07/16 03:31:46;;;;;;;4.20;3.30;;;20.60;99.10;;;;;;6352404;27;20244;-63
2021/07/16 03:34:50;;;;;;;3.90;3.60;;;20.60;99.00;;;;;;6351928;27;20714;-63
2021/07/16 03:37:53;;;;;;;4.20;3.73;;;20.60;99.00;;;;;;6352226;27;20229;-63
2021/07/16 03:40:59;;;;;;;3.97;3.57;;;20.70;99.00;;;;;;6351782;27;20225;-63
2021/07/16 03:44:04;;;;;;;3.90;2.83;;;20.70;99.00;;;;;;6351744;27;20285;-61
2021/07/16 03:47:12;;;;;;;4.40;3.13;;;20.70;99.10;;;;;;6350906;27;20236;-63
2021/07/16 03:50:17;;;;;;;3.60;3.30;;;20.70;99.00;;;;;;6351724;27;20225;-63
2021/07/16 03:53:20;;;;;;;3.97;3.40;;;20.70;98.90;;;;;;6351897;27;20229;-61
2021/07/16 03:56:24;;;;;;;4.77;3.33;;;20.70;98.90;;;;;;6351474;27;20670;-61
2021/07/16 03:59:28;;;;;;;3.60;3.10;;;20.70;98.90;;;;;;6351490;27;20229;-61
2021/07/16 04:02:32;;;;;;;5.20;3.17;;;20.70;99.10;;;;;;6351819;27;20286;-61
2021/07/16 04:05:37;;;;;;;3.70;3.40;;;20.70;99.00;;;;;;6351641;27;20243;-61
2021/07/16 04:08:40;;;;;;;4.00;3.70;;;20.70;99.00;;;;;;6351064;27;20562;-61
2021/07/16 04:11:43;;;;;;;4.17;3.10;;;20.70;99.10;;;;;;6351277;27;20741;-69
2021/07/16 04:14:50;;;;;;;3.50;3.20;;;20.60;99.00;;;;;;6351234;27;20226;-62
2021/07/16 04:17:53;;;;;;;7.53;3.77;;;20.60;99.20;;;;;;6350859;27;20571;-62
2021/07/16 04:20:56;;;;;;;5.70;3.53;;;20.60;99.30;;;;;;6350785;27;20221;-62
2021/07/16 04:23:59;;;;;;;4.60;3.60;;;20.60;99.40;;;;;;6350896;27;20228;-63
2021/07/16 04:27:03;;;;;;;3.80;3.40;;;20.60;99.40;;;;;;6350453;27;20679;-62
2021/07/16 04:30:09;;;;;;;3.60;3.27;;;20.60;99.40;;;;;;6336893;27;20233;-62
2021/07/16 04:33:13;;;;;;;4.10;3.40;;;20.70;99.50;;;;;;6350474;27;20240;-62
2021/07/16 04:36:16;;;;;;;7.73;3.60;;;20.80;99.40;;;;;;6350581;27;20225;-63
2021/07/16 04:39:19;;;;;;;3.43;3.13;;;20.80;99.40;;;;;;6350260;27;20232;-63
2021/07/16 04:42:22;;;;;;;7.33;3.37;;;20.90;99.50;;;;;;6350313;27;20228;-63
2021/07/16 04:45:27;;;;;;;3.87;3.57;;;21.10;99.40;;;;;;6349923;27;20569;-63
2021/07/16 04:48:30;;;;;;;3.73;3.43;;;21.10;99.20;;;;;;6349566;27;20244;-63
2021/07/16 04:51:35;;;;;;;3.87;3.33;;;21.20;99.00;;;;;;6350265;27;20225;-62
2021/07/16 04:54:39;;;;;;;3.50;3.30;;;21.30;98.80;;;;;;6350154;27;20237;-63
2021/07/16 04:57:42;;;;;;;9.00;4.60;;;21.50;98.70;;;;;;6350052;27;20239;-63
2021/07/16 05:00:47;;;;;;;4.33;3.90;;;21.60;98.60;;;;;;6349711;27;20783;-63
2021/07/16 05:03:52;;;;;;;3.90;3.60;;;21.70;98.30;;;;;;6349991;27;20240;-63
2021/07/16 05:06:55;;;;;;;3.70;3.27;;;21.80;98.00;;;;;;6349994;27;20263;-62
2021/07/16 05:09:58;;;;;;;4.03;3.03;;;21.90;97.80;;;;;;6349975;27;20678;-63
2021/07/16 05:13:01;;;;;;;4.43;3.50;;;22.10;97.60;;;;;;6349596;27;20291;-64
2021/07/16 05:16:08;;;;;;;4.23;3.83;;;22.30;97.40;;;;;;6349485;27;20237;-62
2021/07/16 05:19:11;;;;;;;22.33;8.00;;;22.50;97.00;;;;;;6349535;27;20564;-63
2021/07/16 05:22:14;;;;;;;9.50;5.27;;;22.70;96.60;;;;;;6349998;27;20229;-62
2021/07/16 05:25:18;;;;;;;7.63;3.40;;;22.90;96.20;;;;;;6349247;27;20266;-62
2021/07/16 05:28:22;;;;;;;4.47;3.60;;;23.10;95.30;;;;;;6349193;27;20609;-64
2021/07/16 05:31:26;;;;;;;4.80;4.03;;;23.20;95.00;;;;;;6340282;27;20541;-63
2021/07/16 05:34:29;;;;;;;4.63;3.40;;;23.40;95.00;;;;;;6349400;27;20317;-64
2021/07/16 05:37:33;;;;;;;7.50;3.47;;;23.70;94.50;;;;;;6349433;27;20202;-63
2021/07/16 05:40:37;;;;;;;45.47;10.70;;;23.90;94.30;;;;;;6348733;27;20545;-63
2021/07/16 05:43:40;;;;;;;979.00;238.50;;;24.10;93.90;;;;;;6348761;27;20241;-62
2021/07/16 05:46:44;;;;;;;17.83;10.93;;;24.10;93.50;;;;;;6349190;27;20682;-62
2021/07/16 05:49:49;;;;;;;47.13;14.93;;;24.20;92.90;;;;;;6349102;27;20236;-63
2021/07/16 05:52:52;;;;;;;6.63;4.40;;;24.20;93.00;;;;;;6349267;27;20243;-62
2021/07/16 05:55:56;;;;;;;34.03;11.07;;;24.20;92.70;;;;;;6349511;27;20229;-62
2021/07/16 05:58:59;;;;;;;9.20;4.97;;;24.10;92.90;;;;;;6349093;27;20226;-62
2021/07/16 06:02:03;;;;;;;8.67;5.90;;;24.00;93.30;;;;;;6349171;27;20225;-63
2021/07/16 06:05:08;;;;;;;19.10;6.63;;;24.00;93.20;;;;;;6349109;27;20240;-63
2021/07/16 06:08:12;;;;;;;6.60;3.87;;;24.00;93.20;;;;;;6348974;27;20232;-63
2021/07/16 06:11:15;;;;;;;7.53;4.10;;;24.10;93.00;;;;;;6351097;27;20221;-63
2021/07/16 06:14:19;;;;;;;4.07;3.73;;;24.10;93.10;;;;;;6353698;27;20572;-63
2021/07/16 06:17:24;;;;;;;9.27;4.27;;;24.10;92.90;;;;;;6353790;27;20233;-63
2021/07/16 06:20:28;;;;;;;4.20;3.73;;;24.10;92.60;;;;;;6354233;27;20236;-63
2021/07/16 06:23:31;;;;;;;5.93;3.90;;;24.00;92.90;;;;;;6354215;27;20229;-63
2021/07/16 06:26:35;;;;;;;7.43;4.00;;;23.90;92.70;;;;;;6353509;27;20679;-63
2021/07/16 06:29:39;;;;;;;10.27;4.13;;;23.90;92.70;;;;;;6353858;27;20696;-62
2021/07/16 06:32:45;;;;;;;7.47;4.03;;;23.80;92.80;;;;;;6353703;27;20225;-62
2021/07/16 06:35:48;;;;;;;4.33;3.93;;;23.70;93.00;;;;;;6349109;27;20233;-63
2021/07/16 06:38:52;;;;;;;4.77;3.40;;;23.70;93.10;;;;;;6353310;27;20244;-63
2021/07/16 06:41:55;;;;;;;7.67;4.03;;;23.60;93.00;;;;;;6353635;27;20248;-63
2021/07/16 06:44:59;;;;;;;5.70;3.70;;;23.50;93.20;;;;;;6352897;27;20355;-64
2021/07/16 06:48:05;;;;;;;6.60;3.70;;;23.60;93.40;;;;;;6353333;27;20229;-63
2021/07/16 06:51:08;;;;;;;4.63;3.80;;;23.60;93.30;;;;;;6353187;28;20244;-64
2021/07/16 06:54:11;;;;;;;4.90;3.87;;;23.60;93.40;;;;;;6353241;28;20233;-65
2021/07/16 06:57:14;;;;;;;4.70;4.30;;;23.60;93.20;;;;;;6353133;28;20290;-63
2021/07/16 07:00:18;;;;;;;6.80;4.10;;;23.60;93.10;;;;;;6352730;28;20225;-63
2021/07/16 07:03:25;;;;;;;4.93;4.53;;;23.60;93.20;;;;;;6352828;28;20571;-63
2021/07/16 07:06:34;;;;;;;4.97;3.80;;;23.60;93.10;;;;;;6352918;28;20237;-63
2021/07/16 07:09:37;;;;;;;12.87;5.23;;;23.50;93.40;;;;;;6352694;28;20249;-63
2021/07/16 07:12:42;;;;;;;6.63;3.73;;;23.50;93.30;;;;;;6352373;28;20232;-62
2021/07/16 07:15:45;;;;;;;4.03;3.57;;;23.50;93.30;;;;;;6352217;27;21304;-63
2021/07/16 07:18:50;;;;;;;6.73;3.83;;;23.50;93.30;;;;;;6352642;27;20252;-63
2021/07/16 07:21:53;;;;;;;5.00;3.70;;;23.50;93.40;;;;;;6351207;27;20236;-64
2021/07/16 07:24:56;;;;;;;5.30;3.67;;;23.50;93.20;;;;;;6352139;27;20711;-63
2021/07/16 07:27:59;;;;;;;4.10;3.70;;;23.60;93.30;;;;;;6351548;28;20232;-63
2021/07/16 07:31:03;;;;;;;5.13;3.37;;;23.60;93.30;;;;;;6352235;27;20236;-63
2021/07/16 07:34:10;;;;;;;5.30;3.77;;;23.70;93.10;;;;;;6352358;27;20245;-62
2021/07/16 07:37:14;;;;;;;4.70;3.60;;;23.80;93.20;;;;;;6351458;27;20562;-64
2021/07/16 07:40:18;;;;;;;5.00;3.47;;;23.90;92.90;;;;;;6351971;27;20233;-63
2021/07/16 07:43:22;;;;;;;6.07;4.30;;;23.90;92.60;;;;;;6344006;27;20222;-65
2021/07/16 07:46:25;;;;;;;4.03;3.60;;;23.90;92.40;;;;;;6351737;27;20269;-64
2021/07/16 07:49:30;;;;;;;4.30;4.00;;;24.10;92.30;;;;;;6351110;27;20559;-64
2021/07/16 07:52:33;;;;;;;3.70;3.30;;;24.20;92.30;;;;;;6351598;27;20202;-64
2021/07/16 07:55:36;;;;;;;4.60;3.70;;;24.50;92.10;;;;;;6350584;28;20658;-63
2021/07/16 07:58:40;;;;;;;4.07;3.67;;;24.90;91.70;;;;;;6351189;27;20190;-63
2021/07/16 08:01:43;;;;;;;6.43;3.50;;;25.50;91.00;;;;;;6350269;28;20675;-63
2021/07/16 08:04:48;;;;;;;4.10;3.73;;;26.70;89.00;;;;;;6350704;28;20229;-63
2021/07/16 08:07:51;;;;;;;3.87;3.43;;;27.70;84.00;;;;;;6350814;28;20224;-63
2021/07/16 08:10:54;;;;;;;5.10;4.30;;;28.00;80.00;;;;;;6351259;28;20217;-64
2021/07/16 08:13:58;;;;;;;3.97;3.63;;;28.20;78.60;;;;;;6350857;28;20575;-63
2021/07/16 08:17:01;;;;;;;3.90;3.60;;;28.90;77.50;;;;;;6350527;28;20225;-61
2021/07/16 08:20:10;;;;;;;5.50;3.90;;;29.20;73.70;;;;;;6351334;28;20225;-61
2021/07/16 08:23:13;;;;;;;5.90;4.07;;;29.20;74.10;;;;;;6350627;28;20541;-61
2021/07/16 08:26:18;;;;;;;3.33;3.03;;;29.30;72.70;;;;;;6331571;28;22988;-66
2021/07/16 08:29:26;;;;;;;3.30;2.77;;;29.30;71.50;;;;;;6344589;28;20233;-64
2021/07/16 08:32:29;;;;;;;3.97;3.57;;;29.50;71.40;;;;;;6349855;27;20555;-64
2021/07/16 08:35:35;;;;;;;4.13;3.67;;;29.60;69.90;;;;;;6340994;28;20616;-64
2021/07/16 08:38:38;;;;;;;5.73;4.80;;;29.50;69.00;;;;;;6349660;28;20232;-64
2021/07/16 08:41:42;;;;;;;4.43;4.00;;;29.60;68.30;;;;;;6349529;28;20216;-65
2021/07/16 08:44:46;;;;;;;3.90;3.60;;;29.50;66.80;;;;;;6341759;27;20232;-64
2021/07/16 08:47:51;;;;;;;4.13;3.70;;;29.30;67.60;;;;;;6349005;27;20598;-64
2021/07/16 08:50:57;;;;;;;4.20;3.77;;;29.50;67.30;;;;;;6348897;27;20380;-64
2021/07/16 08:54:00;;;;;;;5.73;3.47;;;29.90;65.20;;;;;;6349338;27;20225;-64
2021/07/16 08:57:03;;;;;;;3.10;2.90;;;29.90;63.70;;;;;;6350274;27;20305;-63
2021/07/16 09:00:09;;;;;;;3.40;3.07;;;29.70;64.40;;;;;;6345101;27;20224;-63
2021/07/16 09:03:13;;;;;;;4.57;3.23;;;29.60;63.80;;;;;;6324439;28;20234;-62
2021/07/16 09:06:18;;;;;;;3.17;2.87;;;29.50;63.10;;;;;;6324692;28;20253;-64
2021/07/16 09:09:24;;;;;;;5.07;3.53;;;29.60;62.30;;;;;;6324457;28;20241;-64
2021/07/16 09:12:35;;;;;;;6.80;3.50;;;29.60;63.40;;;;;;6324618;28;20225;-63
2021/07/16 09:15:39;;;;;;;3.70;3.40;;;29.40;63.50;;;;;;6324174;28;20248;-65
2021/07/16 09:18:43;;;;;;;6.33;3.30;;;29.00;62.80;;;;;;6324414;28;20682;-61
2021/07/16 09:22:01;;;;;;;3.70;3.40;;;28.50;61.10;;;;;;6336650;28;20537;-66
2021/07/16 09:25:06;;;;;;;4.30;2.90;;;28.20;63.10;;;;;;6348412;28;20221;-68
2021/07/16 09:28:23;;;;;;;3.90;3.60;;;28.10;64.30;;;;;;6350873;28;20221;-68
2021/07/16 09:31:28;;;;;;;5.77;3.70;;;28.00;63.90;;;;;;6349208;27;20228;-67
2021/07/16 09:34:32;;;;;;;4.07;3.77;;;27.90;64.80;;;;;;6348209;28;20217;-65
2021/07/16 09:37:53;;;;;;;4.50;3.57;;;27.80;65.10;;;;;;6348511;27;20619;-63
2021/07/16 09:40:57;;;;;;;3.50;3.30;;;27.90;66.20;;;;;;6343862;27;20236;-62
2021/07/16 09:44:02;;;;;;;3.60;3.27;;;28.00;65.70;;;;;;6348375;28;20666;-62
2021/07/16 09:47:10;;;;;;;3.40;3.10;;;28.10;65.60;;;;;;6347484;27;20227;-63
2021/07/16 09:50:16;;;;;;;5.70;3.70;;;28.10;64.30;;;;;;6346382;27;20539;-67
2021/07/16 09:53:26;;;;;;;7.37;4.30;;;27.90;65.40;;;;;;6348425;28;20570;-67
2021/07/16 09:56:32;;;;;;;5.80;4.37;;;27.70;65.50;;;;;;6345714;28;20545;-66
2021/07/16 09:59:38;;;;;;;6.40;4.20;;;27.80;66.10;;;;;;6348988;28;20229;-64
2021/07/16 10:02:42;;;;;;;4.80;3.50;;;27.70;66.40;;;;;;6348674;28;20231;-67
2021/07/16 10:05:47;;;;;;;6.60;4.17;;;27.50;67.00;;;;;;6348502;27;20313;-68
2021/07/16 10:08:51;;;;;;;3.80;3.50;;;27.40;67.00;;;;;;6348353;28;20306;-68
2021/07/16 10:11:56;;;;;;;3.47;3.27;;;27.50;68.30;;;;;;6349042;27;20221;-67
2021/07/16 10:15:00;;;;;;;5.13;4.20;;;27.60;67.70;;;;;;6349109;27;20272;-69
2021/07/16 10:18:07;;;;;;;8.40;4.37;;;27.50;67.30;;;;;;6348837;27;20229;-65
2021/07/16 10:21:13;;;;;;;3.30;3.10;;;27.60;67.80;;;;;;6348654;27;20240;-65
2021/07/16 10:24:21;;;;;;;3.63;3.33;;;27.80;68.20;;;;;;6348159;27;20217;-65
2021/07/16 10:27:25;;;;;;;3.60;3.30;;;27.90;67.40;;;;;;6348106;28;20225;-67
2021/07/16 10:30:33;;;;;;;4.03;3.57;;;28.00;67.00;;;;;;6348664;27;20252;-64
2021/07/16 10:33:39;;;;;;;4.10;3.70;;;28.20;67.60;;;;;;6348298;28;20306;-65
2021/07/16 10:36:44;;;;;;;4.27;3.20;;;28.50;66.50;;;;;;6348443;28;20343;-65
2021/07/16 10:39:53;;;;;;;3.50;3.20;;;28.80;64.90;;;;;;6348506;28;20217;-65
2021/07/16 10:42:56;;;;;;;4.73;3.73;;;29.00;63.50;;;;;;6348525;28;20568;-64
2021/07/16 10:46:02;;;;;;;3.37;3.07;;;29.30;62.20;;;;;;6347567;28;20237;-64
2021/07/16 10:49:07;;;;;;;5.17;3.80;;;29.40;60.90;;;;;;6348369;28;20229;-64
2021/07/16 10:52:10;;;;;;;8.47;3.80;;;29.60;59.90;;;;;;6348424;28;20229;-64
2021/07/16 10:55:17;;;;;;;3.50;3.20;;;30.00;61.40;;;;;;6343555;28;20237;-64
2021/07/16 10:58:22;;;;;;;3.55;3.25;;;30.50;58.40;;;;;;6351700;28;20710;-69
2021/07/16 11:01:34;;;;;;;3.70;3.28;;;30.90;57.30;;;;;;6328114;28;20217;-63
2021/07/16 11:04:38;;;;;;;3.83;3.10;;;30.70;56.40;;;;;;6352923;28;20236;-61
2021/07/16 11:07:41;;;;;;;5.87;3.30;;;30.20;56.60;;;;;;6353026;28;20208;-66
2021/07/16 11:10:47;;;;;;;4.70;3.30;;;30.00;57.30;;;;;;6352185;28;20235;-69
2021/07/16 11:13:51;;;;;;;3.53;2.80;;;29.70;57.40;;;;;;6352214;27;20662;-62
2021/07/16 11:17:03;;;;;;;3.80;3.13;;;29.50;57.90;;;;;;6352093;27;20277;-62
2021/07/16 11:20:18;;;;;;;3.60;3.27;;;29.30;58.50;;;;;;6352432;27;20556;-61
2021/07/16 11:23:22;;;;;;;3.80;3.50;;;29.10;59.60;;;;;;6352126;27;20220;-63
2021/07/16 11:26:26;;;;;;;9.70;4.47;;;28.70;59.50;;;;;;6349823;28;20237;-66
2021/07/16 11:29:33;;;;;;;3.47;3.20;;;28.30;60.10;;;;;;6351649;27;20233;-74
2021/07/16 11:32:37;;;;;;;3.60;3.10;;;28.20;60.30;;;;;;6352097;27;20229;-73
2021/07/16 11:35:50;;;;;;;4.50;2.83;;;28.20;62.10;;;;;;6351609;27;20562;-77
2021/07/16 11:38:54;;;;;;;5.90;3.70;;;28.30;60.50;;;;;;6352561;28;20252;-73
2021/07/16 11:41:59;;;;;;;2.80;2.60;;;28.40;60.00;;;;;;6336871;28;20218;-71
2021/07/16 11:45:05;;;;;;;3.30;3.10;;;28.60;62.20;;;;;;6325853;28;20234;-66
2021/07/16 11:48:14;;;;;;;4.70;3.20;;;28.90;60.50;;;;;;6325866;28;20236;-70
2021/07/16 11:51:17;;;;;;;4.20;2.80;;;29.20;59.50;;;;;;6325214;28;20241;-70
2021/07/16 11:54:27;;;;;;;6.83;3.07;;;29.50;58.80;;;;;;6324419;28;20241;-73
2021/07/16 11:57:32;;;;;;;4.00;3.20;;;29.50;57.40;;;;;;6339522;28;20232;-69
2021/07/16 12:00:37;;;;;;;3.97;2.80;;;29.70;56.70;;;;;;6332526;28;20222;-69
2021/07/16 12:03:41;;;;;;;2.90;2.70;;;29.80;56.50;;;;;;6325479;28;20321;-62
2021/07/16 12:06:53;;;;;;;4.13;3.40;;;30.00;57.00;;;;;;6326075;28;20226;-62
2021/07/16 12:09:56;;;;;;;2.97;2.77;;;30.10;55.90;;;;;;6301409;28;20222;-62
2021/07/16 12:13:01;;;;;;;3.30;3.10;;;30.20;55.30;;;;;;6300247;28;20241;-62
2021/07/16 12:16:07;;;;;;;3.53;3.00;;;30.30;54.80;;;;;;6322592;28;20617;-62
2021/07/16 12:19:11;;;;;;;3.83;3.53;;;30.20;55.00;;;;;;6322093;28;20221;-61
2021/07/16 12:22:15;;;;;;;3.50;3.20;;;30.10;56.80;;;;;;6325135;28;20229;-62
2021/07/16 12:25:19;;;;;;;5.80;3.77;;;30.20;56.60;;;;;;6309193;28;20744;-60
2021/07/16 12:28:31;;;;;;;12.17;4.97;;;30.10;56.70;;;;;;6334149;28;20220;-60
2021/07/16 12:31:34;;;;;;;3.77;3.50;;;30.20;56.60;;;;;;6300530;28;20264;-61
2021/07/16 12:34:44;;;;;;;4.43;3.27;;;30.10;56.30;;;;;;6307906;28;20228;-66
2021/07/16 12:37:49;;;;;;;7.20;3.40;;;30.20;58.10;;;;;;6325246;28;20300;-65
2021/07/16 12:40:52;;;;;;;4.67;3.47;;;30.20;57.60;;;;;;6325380;28;20244;-66
2021/07/16 12:43:56;;;;;;;3.40;3.20;;;30.20;56.60;;;;;;6329806;28;20221;-66
2021/07/16 12:46:59;;;;;;;3.37;3.00;;;30.10;56.10;;;;;;6344983;27;20306;-65
2021/07/16 12:50:12;;;;;;;4.00;3.70;;;30.00;55.80;;;;;;6324777;28;20232;-61
2021/07/16 12:53:33;;;;;;;5.30;3.60;;;29.80;56.10;;;;;;6322415;28;20222;-61
2021/07/16 12:56:38;;;;;;;4.57;3.17;;;29.60;57.00;;;;;;6325029;28;20237;-61
2021/07/16 12:59:57;;;;;;;4.93;3.30;;;29.70;57.60;;;;;;6335203;28;20646;-68
2021/07/16 13:03:17;;;;;;;3.83;3.43;;;29.80;58.00;;;;;;6336462;27;20233;-66
2021/07/16 13:06:25;;;;;;;3.00;2.70;;;29.80;57.40;;;;;;6324459;28;20241;-66
2021/07/16 13:09:32;;;;;;;3.27;2.93;;;29.80;57.70;;;;;;6324794;28;20701;-68
2021/07/16 13:12:35;;;;;;;3.60;3.30;;;29.90;57.60;;;;;;6324301;28;20229;-67
2021/07/16 13:15:40;;;;;;;3.40;3.10;;;30.10;57.50;;;;;;6343128;28;20239;-67
2021/07/16 13:18:49;;;;;;;3.30;3.00;;;30.30;57.30;;;;;;6329200;27;20690;-66
2021/07/16 13:21:52;;;;;;;4.10;2.97;;;30.40;56.80;;;;;;6324419;28;20240;-66
2021/07/16 13:24:56;;;;;;;4.70;3.90;;;30.60;55.80;;;;;;6323976;28;20233;-66
2021/07/16 13:28:00;;;;;;;3.27;2.97;;;30.70;55.60;;;;;;6314405;28;20218;-66
2021/07/16 13:31:05;;;;;;;4.60;3.30;;;30.80;55.60;;;;;;6327932;28;20231;-66
2021/07/16 13:34:08;;;;;;;3.00;2.80;;;30.90;55.70;;;;;;6325559;28;20237;-63
2021/07/16 13:37:11;;;;;;;4.35;3.95;;;30.90;55.20;;;;;;6298777;28;20229;-64
2021/07/16 13:40:15;;;;;;;3.42;3.13;;;30.80;54.90;;;;;;6298936;28;20218;-64
2021/07/16 13:43:18;;;;;;;3.57;3.23;;;30.70;55.20;;;;;;6323063;28;20233;-64
2021/07/16 13:46:23;;;;;;;4.47;3.50;;;30.60;55.40;;;;;;6298830;28;20395;-64
2021/07/16 13:49:27;;;;;;;3.40;3.10;;;30.50;55.70;;;;;;6299537;28;20226;-64
2021/07/16 13:52:30;;;;;;;4.00;3.60;;;30.30;55.70;;;;;;6322878;28;20236;-64
2021/07/16 13:55:33;;;;;;;3.17;2.92;;;30.50;55.60;;;;;;6298813;28;20587;-64
2021/07/16 13:58:36;;;;;;;7.47;3.40;;;30.50;55.20;;;;;;6298749;28;20206;-64
2021/07/16 14:01:41;;;;;;;3.60;3.30;;;30.40;55.40;;;;;;6307451;28;20217;-64
2021/07/16 14:04:44;;;;;;;4.20;3.30;;;30.10;55.70;;;;;;6302287;28;20237;-64
2021/07/16 14:07:48;;;;;;;3.73;3.43;;;30.00;56.60;;;;;;6345406;27;20240;-64
2021/07/16 14:10:51;;;;;;;3.83;3.50;;;29.80;57.00;;;;;;6298889;28;20309;-64
2021/07/16 14:13:55;;;;;;;4.10;3.80;;;29.80;57.70;;;;;;6298323;28;20230;-63
2021/07/16 14:17:00;;;;;;;3.77;3.33;;;29.70;58.40;;;;;;6303439;28;20233;-66
2021/07/16 14:20:05;;;;;;;3.53;3.23;;;29.60;58.20;;;;;;6323450;28;20233;-63
2021/07/16 14:23:08;;;;;;;4.43;4.00;;;29.50;58.20;;;;;;6329818;28;20220;-64
2021/07/16 14:26:11;;;;;;;3.87;3.57;;;29.40;59.00;;;;;;6341624;27;20229;-65
2021/07/16 14:29:14;;;;;;;4.03;3.73;;;29.60;58.60;;;;;;6304309;28;20230;-66
2021/07/16 14:32:19;;;;;;;4.27;3.87;;;29.60;58.90;;;;;;6300149;28;20244;-60
2021/07/16 14:35:24;;;;;;;4.00;3.67;;;29.70;58.20;;;;;;6315272;28;20232;-62
2021/07/16 14:38:27;;;;;;;3.30;3.10;;;29.80;58.50;;;;;;6325601;28;20225;-62
2021/07/16 14:41:32;;;;;;;4.13;3.00;;;30.00;57.50;;;;;;6313885;28;20236;-65
2021/07/16 14:44:36;;;;;;;3.60;3.40;;;30.00;58.00;;;;;;6302591;28;20233;-65
2021/07/16 14:47:40;;;;;;;5.27;3.50;;;30.00;57.70;;;;;;6327008;28;20229;-66
2021/07/16 14:50:44;;;;;;;4.10;3.70;;;29.90;57.60;;;;;;6327620;28;20245;-65
2021/07/16 14:53:47;;;;;;;3.90;3.60;;;29.90;58.10;;;;;;6327807;28;20240;-65
2021/07/16 14:56:50;;;;;;;3.70;3.40;;;29.80;58.00;;;;;;6327580;28;20236;-65
2021/07/16 14:59:53;;;;;;;3.97;3.67;;;29.70;57.90;;;;;;6322498;28;20225;-65
2021/07/16 15:02:58;;;;;;;4.13;3.83;;;29.50;58.50;;;;;;6315225;28;20221;-66
2021/07/16 15:06:02;;;;;;;4.37;3.97;;;29.30;58.40;;;;;;6318525;27;20226;-61
2021/07/16 15:09:05;;;;;;;3.60;3.30;;;29.20;59.30;;;;;;6321282;28;20581;-67
2021/07/16 15:12:09;;;;;;;3.83;3.50;;;29.30;60.80;;;;;;6326382;28;20240;-63
2021/07/16 15:15:13;;;;;;;3.77;3.37;;;29.40;59.90;;;;;;6327192;28;20698;-66
2021/07/16 15:18:17;;;;;;;3.90;3.70;;;29.40;58.70;;;;;;6326043;28;20229;-63
2021/07/16 15:21:20;;;;;;;3.33;3.00;;;29.30;58.00;;;;;;6319944;28;20225;-63
2021/07/16 15:24:24;;;;;;;3.80;3.50;;;29.30;58.10;;;;;;6308642;28;20245;-63
2021/07/16 15:27:27;;;;;;;4.30;3.30;;;29.40;58.50;;;;;;6324339;28;20226;-63
2021/07/16 15:30:30;;;;;;;4.07;3.40;;;29.40;58.40;;;;;;6310356;28;20241;-62
2021/07/16 15:33:34;;;;;;;3.70;3.40;;;29.60;58.30;;;;;;6301542;28;20241;-62
2021/07/16 15:36:38;;;;;;;3.57;3.00;;;29.70;57.30;;;;;;6319658;28;20234;-61
2021/07/16 15:39:41;;;;;;;2.93;2.73;;;29.70;56.40;;;;;;6329162;27;20562;-61
2021/07/16 15:42:44;;;;;;;2.73;2.53;;;29.60;56.30;;;;;;6325778;28;20221;-61
2021/07/16 15:45:47;;;;;;;3.33;3.13;;;29.60;56.30;;;;;;6325894;28;20233;-61
2021/07/16 15:48:52;;;;;;;2.90;2.67;;;29.60;55.10;;;;;;6326199;28;20225;-62
2021/07/16 15:51:55;;;;;;;3.00;2.80;;;29.60;56.80;;;;;;6347388;28;20228;-61
2021/07/16 15:54:59;;;;;;;3.40;2.90;;;29.60;55.80;;;;;;6322822;27;20218;-61
2021/07/16 15:58:02;;;;;;;2.70;2.50;;;29.70;56.90;;;;;;6300684;28;20569;-61